sensor_id;sensor_type;location;lat;lon;timestamp;P1;durP1;ratioP1;P2;durP2;ratioP2
55931;SDS011;41837;55.700;37.984;2023-09-12T00:00:47;223.85;;;84.78;;
55931;SDS011;41837;55.700;37.984;2023-09-12T00:03:14;175.77;;;68.32;;
55931;SDS011;41837;55.700;37.984;2023-09-12T00:08:23;147.63;;;51.75;;
55931;SDS011;41837;55.700;37.984;2023-09-12T00:11:06;138.32;;;57.00;;
55931;SDS011;41837;55.700;37.984;2023-09-12T00:13:37;126.85;;;51.25;;
55931;SDS011;41837;55.700;37.984;2023-09-12T00:16:04;107.88;;;45.17;;
55931;SDS011;41837;55.700;37.984;2023-09-12T00:18:37;115.53;;;48.15;;
55931;SDS011;41837;55.700;37.984;2023-09-12T00:21:03;119.00;;;50.80;;
55931;SDS011;41837;55.700;37.984;2023-09-12T00:23:30;128.90;;;53.42;;
55931;SDS011;41837;55.700;37.984;2023-09-12T00:25:57;111.78;;;49.60;;
55931;SDS011;41837;55.700;37.984;2023-09-12T00:28:24;116.50;;;48.65;;
55931;SDS011;41837;55.700;37.984;2023-09-12T00:30:51;106.38;;;45.33;;
55931;SDS011;41837;55.700;37.984;2023-09-12T00:33:18;116.25;;;44.75;;
55931;SDS011;41837;55.700;37.984;2023-09-12T00:35:44;99.75;;;40.95;;
55931;SDS011;41837;55.700;37.984;2023-09-12T00:38:11;94.47;;;38.70;;
55931;SDS011;41837;55.700;37.984;2023-09-12T00:40:37;92.97;;;38.22;;
55931;SDS011;41837;55.700;37.984;2023-09-12T00:43:04;116.18;;;41.13;;
55931;SDS011;41837;55.700;37.984;2023-09-12T00:45:30;125.75;;;42.70;;
55931;SDS011;41837;55.700;37.984;2023-09-12T00:47:58;112.25;;;39.05;;
55931;SDS011;41837;55.700;37.984;2023-09-12T00:50:26;84.60;;;34.85;;
55931;SDS011;41837;55.700;37.984;2023-09-12T00:52:53;84.35;;;34.55;;
55931;SDS011;41837;55.700;37.984;2023-09-12T00:55:21;80.72;;;34.88;;
55931;SDS011;41837;55.700;37.984;2023-09-12T00:57:47;84.40;;;33.67;;
55931;SDS011;41837;55.700;37.984;2023-09-12T01:00:15;80.85;;;34.22;;
55931;SDS011;41837;55.700;37.984;2023-09-12T01:02:42;72.85;;;32.05;;
55931;SDS011;41837;55.700;37.984;2023-09-12T01:05:11;76.22;;;31.98;;
55931;SDS011;41837;55.700;37.984;2023-09-12T01:07:38;75.43;;;31.85;;
55931;SDS011;41837;55.700;37.984;2023-09-12T01:10:05;80.28;;;32.95;;
55931;SDS011;41837;55.700;37.984;2023-09-12T01:12:33;76.43;;;32.80;;
55931;SDS011;41837;55.700;37.984;2023-09-12T01:15:00;78.65;;;33.50;;
55931;SDS011;41837;55.700;37.984;2023-09-12T01:17:26;77.18;;;31.73;;
55931;SDS011;41837;55.700;37.984;2023-09-12T01:19:53;79.28;;;31.83;;
55931;SDS011;41837;55.700;37.984;2023-09-12T01:25:08;91.60;;;36.83;;
55931;SDS011;41837;55.700;37.984;2023-09-12T01:28:00;79.15;;;32.13;;
55931;SDS011;41837;55.700;37.984;2023-09-12T01:30:28;71.78;;;31.83;;
55931;SDS011;41837;55.700;37.984;2023-09-12T01:33:04;81.90;;;32.05;;
55931;SDS011;41837;55.700;37.984;2023-09-12T01:35:32;72.53;;;32.33;;
55931;SDS011;41837;55.700;37.984;2023-09-12T01:37:58;74.68;;;31.70;;
55931;SDS011;41837;55.700;37.984;2023-09-12T01:40:27;66.22;;;30.00;;
55931;SDS011;41837;55.700;37.984;2023-09-12T01:43:09;94.90;;;34.85;;
55931;SDS011;41837;55.700;37.984;2023-09-12T01:45:37;75.30;;;31.50;;
55931;SDS011;41837;55.700;37.984;2023-09-12T01:48:04;104.05;;;34.30;;
55931;SDS011;41837;55.700;37.984;2023-09-12T01:50:32;100.65;;;35.30;;
55931;SDS011;41837;55.700;37.984;2023-09-12T01:53:00;100.18;;;35.28;;
55931;SDS011;41837;55.700;37.984;2023-09-12T01:55:27;112.30;;;34.95;;
55931;SDS011;41837;55.700;37.984;2023-09-12T01:57:53;150.38;;;39.40;;
55931;SDS011;41837;55.700;37.984;2023-09-12T02:00:21;234.27;;;41.78;;
55931;SDS011;41837;55.700;37.984;2023-09-12T02:02:47;224.63;;;40.67;;
55931;SDS011;41837;55.700;37.984;2023-09-12T02:07:45;351.45;;;46.08;;
55931;SDS011;41837;55.700;37.984;2023-09-12T02:10:12;390.17;;;46.28;;
55931;SDS011;41837;55.700;37.984;2023-09-12T02:12:38;473.48;;;55.75;;
55931;SDS011;41837;55.700;37.984;2023-09-12T02:15:06;344.40;;;51.05;;
55931;SDS011;41837;55.700;37.984;2023-09-12T02:17:33;370.05;;;54.42;;
55931;SDS011;41837;55.700;37.984;2023-09-12T02:20:20;403.70;;;57.75;;
55931;SDS011;41837;55.700;37.984;2023-09-12T02:22:47;488.65;;;60.72;;
55931;SDS011;41837;55.700;37.984;2023-09-12T02:25:13;570.28;;;64.40;;
55931;SDS011;41837;55.700;37.984;2023-09-12T02:27:39;422.08;;;55.28;;
55931;SDS011;41837;55.700;37.984;2023-09-12T02:30:06;597.53;;;69.85;;
55931;SDS011;41837;55.700;37.984;2023-09-12T02:32:34;519.05;;;67.45;;
55931;SDS011;41837;55.700;37.984;2023-09-12T02:35:00;520.78;;;66.97;;
55931;SDS011;41837;55.700;37.984;2023-09-12T02:37:26;500.48;;;67.05;;
55931;SDS011;41837;55.700;37.984;2023-09-12T02:39:53;406.05;;;58.92;;
55931;SDS011;41837;55.700;37.984;2023-09-12T02:42:20;477.38;;;69.43;;
55931;SDS011;41837;55.700;37.984;2023-09-12T02:44:47;352.27;;;65.00;;
55931;SDS011;41837;55.700;37.984;2023-09-12T02:47:13;336.67;;;56.38;;
55931;SDS011;41837;55.700;37.984;2023-09-12T02:49:39;449.55;;;71.28;;
55931;SDS011;41837;55.700;37.984;2023-09-12T02:52:06;401.55;;;65.15;;
55931;SDS011;41837;55.700;37.984;2023-09-12T02:54:32;383.90;;;56.50;;
55931;SDS011;41837;55.700;37.984;2023-09-12T02:56:57;466.13;;;64.25;;
55931;SDS011;41837;55.700;37.984;2023-09-12T02:59:24;327.17;;;56.13;;
55931;SDS011;41837;55.700;37.984;2023-09-12T03:01:51;369.52;;;54.25;;
55931;SDS011;41837;55.700;37.984;2023-09-12T03:04:18;500.02;;;60.60;;
55931;SDS011;41837;55.700;37.984;2023-09-12T03:06:44;447.80;;;61.33;;
55931;SDS011;41837;55.700;37.984;2023-09-12T03:09:10;432.95;;;61.55;;
55931;SDS011;41837;55.700;37.984;2023-09-12T03:11:37;501.20;;;61.60;;
55931;SDS011;41837;55.700;37.984;2023-09-12T03:14:04;507.15;;;65.70;;
55931;SDS011;41837;55.700;37.984;2023-09-12T03:16:30;490.75;;;64.00;;
55931;SDS011;41837;55.700;37.984;2023-09-12T03:18:56;428.23;;;63.88;;
55931;SDS011;41837;55.700;37.984;2023-09-12T03:21:23;479.92;;;81.95;;
55931;SDS011;41837;55.700;37.984;2023-09-12T03:23:49;500.48;;;77.68;;
55931;SDS011;41837;55.700;37.984;2023-09-12T03:26:15;516.60;;;75.22;;
55931;SDS011;41837;55.700;37.984;2023-09-12T03:28:41;423.35;;;62.72;;
55931;SDS011;41837;55.700;37.984;2023-09-12T03:31:08;304.38;;;55.72;;
55931;SDS011;41837;55.700;37.984;2023-09-12T03:33:38;455.25;;;58.83;;
55931;SDS011;41837;55.700;37.984;2023-09-12T03:36:08;442.33;;;60.78;;
55931;SDS011;41837;55.700;37.984;2023-09-12T03:38:35;328.15;;;55.88;;
55931;SDS011;41837;55.700;37.984;2023-09-12T03:41:01;474.33;;;63.15;;
55931;SDS011;41837;55.700;37.984;2023-09-12T03:43:28;349.48;;;53.63;;
55931;SDS011;41837;55.700;37.984;2023-09-12T03:45:55;379.20;;;55.90;;
55931;SDS011;41837;55.700;37.984;2023-09-12T03:48:21;371.50;;;55.03;;
55931;SDS011;41837;55.700;37.984;2023-09-12T03:50:48;346.85;;;54.17;;
55931;SDS011;41837;55.700;37.984;2023-09-12T03:53:14;378.67;;;57.47;;
55931;SDS011;41837;55.700;37.984;2023-09-12T03:55:42;376.02;;;58.72;;
55931;SDS011;41837;55.700;37.984;2023-09-12T03:58:08;414.83;;;65.53;;
55931;SDS011;41837;55.700;37.984;2023-09-12T04:00:35;356.30;;;64.03;;
55931;SDS011;41837;55.700;37.984;2023-09-12T04:03:01;297.35;;;56.00;;
55931;SDS011;41837;55.700;37.984;2023-09-12T04:05:28;290.63;;;55.63;;
55931;SDS011;41837;55.700;37.984;2023-09-12T04:07:54;251.82;;;47.95;;
55931;SDS011;41837;55.700;37.984;2023-09-12T04:10:24;187.05;;;42.15;;
55931;SDS011;41837;55.700;37.984;2023-09-12T04:12:51;173.43;;;43.05;;
55931;SDS011;41837;55.700;37.984;2023-09-12T04:15:17;227.15;;;43.22;;
55931;SDS011;41837;55.700;37.984;2023-09-12T04:17:43;272.95;;;46.05;;
55931;SDS011;41837;55.700;37.984;2023-09-12T04:20:10;290.73;;;46.70;;
55931;SDS011;41837;55.700;37.984;2023-09-12T04:22:41;331.48;;;44.00;;
55931;SDS011;41837;55.700;37.984;2023-09-12T04:25:08;195.15;;;39.55;;
55931;SDS011;41837;55.700;37.984;2023-09-12T04:27:35;262.25;;;38.53;;
55931;SDS011;41837;55.700;37.984;2023-09-12T04:30:02;168.80;;;37.65;;
55931;SDS011;41837;55.700;37.984;2023-09-12T04:32:34;112.10;;;36.42;;
55931;SDS011;41837;55.700;37.984;2023-09-12T04:35:00;131.95;;;38.17;;
55931;SDS011;41837;55.700;37.984;2023-09-12T04:37:28;99.40;;;35.92;;
55931;SDS011;41837;55.700;37.984;2023-09-12T04:39:55;81.22;;;34.15;;
55931;SDS011;41837;55.700;37.984;2023-09-12T04:42:22;92.85;;;35.90;;
55931;SDS011;41837;55.700;37.984;2023-09-12T04:44:48;121.22;;;35.17;;
55931;SDS011;41837;55.700;37.984;2023-09-12T04:47:15;87.20;;;36.20;;
55931;SDS011;41837;55.700;37.984;2023-09-12T04:49:43;78.30;;;36.30;;
55931;SDS011;41837;55.700;37.984;2023-09-12T04:52:10;103.13;;;36.58;;
55931;SDS011;41837;55.700;37.984;2023-09-12T04:54:36;91.30;;;36.75;;
55931;SDS011;41837;55.700;37.984;2023-09-12T04:57:03;96.20;;;37.15;;
55931;SDS011;41837;55.700;37.984;2023-09-12T04:59:29;64.07;;;35.50;;
55931;SDS011;41837;55.700;37.984;2023-09-12T05:01:56;70.82;;;35.25;;
55931;SDS011;41837;55.700;37.984;2023-09-12T05:04:23;65.50;;;32.28;;
55931;SDS011;41837;55.700;37.984;2023-09-12T05:06:49;49.10;;;28.13;;
55931;SDS011;41837;55.700;37.984;2023-09-12T05:09:15;60.95;;;30.55;;
55931;SDS011;41837;55.700;37.984;2023-09-12T05:11:41;48.38;;;27.27;;
55931;SDS011;41837;55.700;37.984;2023-09-12T05:14:09;43.67;;;26.88;;
55931;SDS011;41837;55.700;37.984;2023-09-12T05:16:35;47.22;;;27.80;;
55931;SDS011;41837;55.700;37.984;2023-09-12T05:19:01;54.00;;;28.90;;
55931;SDS011;41837;55.700;37.984;2023-09-12T05:21:29;43.50;;;29.08;;
55931;SDS011;41837;55.700;37.984;2023-09-12T05:23:55;55.25;;;31.40;;
55931;SDS011;41837;55.700;37.984;2023-09-12T05:26:21;59.15;;;35.60;;
55931;SDS011;41837;55.700;37.984;2023-09-12T05:28:47;55.78;;;32.47;;
55931;SDS011;41837;55.700;37.984;2023-09-12T05:31:14;47.60;;;29.80;;
55931;SDS011;41837;55.700;37.984;2023-09-12T05:33:41;40.50;;;26.75;;
55931;SDS011;41837;55.700;37.984;2023-09-12T05:36:07;43.95;;;28.20;;
55931;SDS011;41837;55.700;37.984;2023-09-12T05:38:33;47.63;;;27.05;;
55931;SDS011;41837;55.700;37.984;2023-09-12T05:41:00;46.30;;;27.70;;
55931;SDS011;41837;55.700;37.984;2023-09-12T05:43:27;46.53;;;28.23;;
55931;SDS011;41837;55.700;37.984;2023-09-12T05:45:54;48.50;;;25.45;;
55931;SDS011;41837;55.700;37.984;2023-09-12T05:48:20;43.17;;;28.55;;
55931;SDS011;41837;55.700;37.984;2023-09-12T05:50:46;41.53;;;29.08;;
55931;SDS011;41837;55.700;37.984;2023-09-12T05:53:13;46.92;;;28.35;;
55931;SDS011;41837;55.700;37.984;2023-09-12T05:55:40;42.05;;;26.85;;
55931;SDS011;41837;55.700;37.984;2023-09-12T05:58:06;44.25;;;26.00;;
55931;SDS011;41837;55.700;37.984;2023-09-12T06:00:34;39.50;;;25.27;;
55931;SDS011;41837;55.700;37.984;2023-09-12T06:03:00;46.08;;;26.00;;
55931;SDS011;41837;55.700;37.984;2023-09-12T06:05:27;45.97;;;26.77;;
55931;SDS011;41837;55.700;37.984;2023-09-12T06:07:53;45.92;;;24.90;;
55931;SDS011;41837;55.700;37.984;2023-09-12T06:10:20;40.05;;;25.55;;
55931;SDS011;41837;55.700;37.984;2023-09-12T06:12:46;44.40;;;25.58;;
55931;SDS011;41837;55.700;37.984;2023-09-12T06:15:12;35.15;;;24.30;;
55931;SDS011;41837;55.700;37.984;2023-09-12T06:17:39;39.50;;;23.58;;
55931;SDS011;41837;55.700;37.984;2023-09-12T06:20:05;43.15;;;22.95;;
55931;SDS011;41837;55.700;37.984;2023-09-12T06:22:32;39.30;;;24.42;;
55931;SDS011;41837;55.700;37.984;2023-09-12T06:25:00;44.58;;;25.30;;
55931;SDS011;41837;55.700;37.984;2023-09-12T06:27:26;49.67;;;26.88;;
55931;SDS011;41837;55.700;37.984;2023-09-12T06:29:53;44.42;;;24.77;;
55931;SDS011;41837;55.700;37.984;2023-09-12T06:32:19;38.88;;;24.00;;
55931;SDS011;41837;55.700;37.984;2023-09-12T06:34:45;42.20;;;23.98;;
55931;SDS011;41837;55.700;37.984;2023-09-12T06:37:13;41.03;;;24.33;;
55931;SDS011;41837;55.700;37.984;2023-09-12T06:39:40;39.65;;;23.40;;
55931;SDS011;41837;55.700;37.984;2023-09-12T06:42:07;33.95;;;22.90;;
55931;SDS011;41837;55.700;37.984;2023-09-12T06:44:34;38.10;;;21.90;;
55931;SDS011;41837;55.700;37.984;2023-09-12T06:47:03;35.45;;;22.30;;
55931;SDS011;41837;55.700;37.984;2023-09-12T06:49:30;42.38;;;21.50;;
55931;SDS011;41837;55.700;37.984;2023-09-12T06:51:57;37.47;;;21.75;;
55931;SDS011;41837;55.700;37.984;2023-09-12T06:54:23;30.45;;;21.27;;
55931;SDS011;41837;55.700;37.984;2023-09-12T06:56:49;36.35;;;20.50;;
55931;SDS011;41837;55.700;37.984;2023-09-12T06:59:16;33.88;;;20.48;;
55931;SDS011;41837;55.700;37.984;2023-09-12T07:01:42;36.88;;;21.58;;
55931;SDS011;41837;55.700;37.984;2023-09-12T07:04:09;31.05;;;19.73;;
55931;SDS011;41837;55.700;37.984;2023-09-12T07:06:36;28.23;;;19.75;;
55931;SDS011;41837;55.700;37.984;2023-09-12T07:09:02;26.90;;;19.17;;
55931;SDS011;41837;55.700;37.984;2023-09-12T07:11:30;34.03;;;18.65;;
55931;SDS011;41837;55.700;37.984;2023-09-12T07:13:56;26.95;;;15.20;;
55931;SDS011;41837;55.700;37.984;2023-09-12T07:16:22;22.13;;;16.58;;
55931;SDS011;41837;55.700;37.984;2023-09-12T07:18:49;28.63;;;18.38;;
55931;SDS011;41837;55.700;37.984;2023-09-12T07:21:16;32.25;;;17.95;;
55931;SDS011;41837;55.700;37.984;2023-09-12T07:23:42;23.77;;;16.23;;
55931;SDS011;41837;55.700;37.984;2023-09-12T07:26:13;23.85;;;16.65;;
55931;SDS011;41837;55.700;37.984;2023-09-12T07:28:41;20.63;;;14.70;;
55931;SDS011;41837;55.700;37.984;2023-09-12T07:31:08;17.48;;;12.48;;
55931;SDS011;41837;55.700;37.984;2023-09-12T07:33:34;17.98;;;12.35;;
55931;SDS011;41837;55.700;37.984;2023-09-12T07:36:00;18.10;;;12.73;;
55931;SDS011;41837;55.700;37.984;2023-09-12T07:38:28;18.00;;;12.57;;
55931;SDS011;41837;55.700;37.984;2023-09-12T07:40:57;18.20;;;12.30;;
55931;SDS011;41837;55.700;37.984;2023-09-12T07:43:24;20.13;;;13.25;;
55931;SDS011;41837;55.700;37.984;2023-09-12T07:45:56;17.02;;;12.02;;
55931;SDS011;41837;55.700;37.984;2023-09-12T07:48:23;17.45;;;12.07;;
55931;SDS011;41837;55.700;37.984;2023-09-12T07:50:50;18.13;;;11.52;;
55931;SDS011;41837;55.700;37.984;2023-09-12T07:53:17;14.65;;;10.52;;
55931;SDS011;41837;55.700;37.984;2023-09-12T07:55:43;16.83;;;10.88;;
55931;SDS011;41837;55.700;37.984;2023-09-12T07:58:15;16.42;;;11.05;;
55931;SDS011;41837;55.700;37.984;2023-09-12T08:00:45;15.35;;;11.30;;
55931;SDS011;41837;55.700;37.984;2023-09-12T08:03:12;16.52;;;11.23;;
55931;SDS011;41837;55.700;37.984;2023-09-12T08:05:40;13.27;;;10.38;;
55931;SDS011;41837;55.700;37.984;2023-09-12T08:08:07;17.17;;;9.52;;
55931;SDS011;41837;55.700;37.984;2023-09-12T08:10:33;15.80;;;10.88;;
55931;SDS011;41837;55.700;37.984;2023-09-12T08:13:03;14.68;;;10.32;;
55931;SDS011;41837;55.700;37.984;2023-09-12T08:15:30;14.13;;;10.02;;
55931;SDS011;41837;55.700;37.984;2023-09-12T08:18:06;17.10;;;10.77;;
55931;SDS011;41837;55.700;37.984;2023-09-12T08:20:32;14.07;;;9.50;;
55931;SDS011;41837;55.700;37.984;2023-09-12T08:22:59;17.02;;;10.75;;
55931;SDS011;41837;55.700;37.984;2023-09-12T08:25:25;13.48;;;10.32;;
55931;SDS011;41837;55.700;37.984;2023-09-12T08:27:53;15.40;;;9.55;;
55931;SDS011;41837;55.700;37.984;2023-09-12T08:30:19;15.95;;;9.73;;
55931;SDS011;41837;55.700;37.984;2023-09-12T08:32:45;14.15;;;9.55;;
55931;SDS011;41837;55.700;37.984;2023-09-12T08:35:21;15.30;;;9.52;;
55931;SDS011;41837;55.700;37.984;2023-09-12T08:37:48;15.25;;;9.30;;
55931;SDS011;41837;55.700;37.984;2023-09-12T08:40:14;14.45;;;9.02;;
55931;SDS011;41837;55.700;37.984;2023-09-12T08:42:42;16.60;;;9.73;;
55931;SDS011;41837;55.700;37.984;2023-09-12T08:45:19;15.32;;;9.70;;
55931;SDS011;41837;55.700;37.984;2023-09-12T08:47:45;11.13;;;7.50;;
55931;SDS011;41837;55.700;37.984;2023-09-12T08:50:15;18.23;;;8.38;;
55931;SDS011;41837;55.700;37.984;2023-09-12T08:52:43;9.40;;;6.75;;
55931;SDS011;41837;55.700;37.984;2023-09-12T08:55:11;12.68;;;7.30;;
55931;SDS011;41837;55.700;37.984;2023-09-12T08:57:39;11.70;;;6.95;;
55931;SDS011;41837;55.700;37.984;2023-09-12T09:00:08;9.55;;;6.95;;
55931;SDS011;41837;55.700;37.984;2023-09-12T09:02:36;10.18;;;7.53;;
55931;SDS011;41837;55.700;37.984;2023-09-12T09:05:04;11.10;;;7.32;;
55931;SDS011;41837;55.700;37.984;2023-09-12T09:07:35;12.70;;;7.68;;
55931;SDS011;41837;55.700;37.984;2023-09-12T09:10:04;13.77;;;7.60;;
55931;SDS011;41837;55.700;37.984;2023-09-12T09:12:35;9.93;;;7.32;;
55931;SDS011;41837;55.700;37.984;2023-09-12T09:15:24;15.95;;;7.45;;
55931;SDS011;41837;55.700;37.984;2023-09-12T09:17:53;10.30;;;7.60;;
55931;SDS011;41837;55.700;37.984;2023-09-12T09:20:28;10.48;;;7.10;;
55931;SDS011;41837;55.700;37.984;2023-09-12T09:22:56;10.20;;;7.10;;
55931;SDS011;41837;55.700;37.984;2023-09-12T09:25:24;10.88;;;7.38;;
55931;SDS011;41837;55.700;37.984;2023-09-12T09:27:50;11.68;;;7.57;;
55931;SDS011;41837;55.700;37.984;2023-09-12T09:30:16;10.15;;;6.38;;
55931;SDS011;41837;55.700;37.984;2023-09-12T09:33:10;11.55;;;5.85;;
55931;SDS011;41837;55.700;37.984;2023-09-12T09:35:38;9.68;;;5.82;;
55931;SDS011;41837;55.700;37.984;2023-09-12T09:38:07;8.82;;;5.45;;
55931;SDS011;41837;55.700;37.984;2023-09-12T09:40:34;9.68;;;5.20;;
55931;SDS011;41837;55.700;37.984;2023-09-12T09:43:02;7.45;;;5.80;;
55931;SDS011;41837;55.700;37.984;2023-09-12T09:45:29;8.63;;;5.97;;
55931;SDS011;41837;55.700;37.984;2023-09-12T09:48:06;7.72;;;5.45;;
55931;SDS011;41837;55.700;37.984;2023-09-12T09:50:34;7.82;;;5.95;;
55931;SDS011;41837;55.700;37.984;2023-09-12T09:53:03;7.43;;;5.38;;
55931;SDS011;41837;55.700;37.984;2023-09-12T09:55:33;9.02;;;5.50;;
55931;SDS011;41837;55.700;37.984;2023-09-12T09:57:59;9.68;;;5.68;;
55931;SDS011;41837;55.700;37.984;2023-09-12T10:00:26;8.68;;;6.38;;
55931;SDS011;41837;55.700;37.984;2023-09-12T10:02:55;7.80;;;5.43;;
55931;SDS011;41837;55.700;37.984;2023-09-12T10:05:22;8.13;;;6.13;;
55931;SDS011;41837;55.700;37.984;2023-09-12T10:07:49;8.35;;;6.35;;
55931;SDS011;41837;55.700;37.984;2023-09-12T10:10:16;8.55;;;5.85;;
55931;SDS011;41837;55.700;37.984;2023-09-12T10:12:55;8.57;;;6.00;;
55931;SDS011;41837;55.700;37.984;2023-09-12T10:15:24;8.82;;;5.82;;
55931;SDS011;41837;55.700;37.984;2023-09-12T10:17:59;8.95;;;5.22;;
55931;SDS011;41837;55.700;37.984;2023-09-12T10:20:40;8.20;;;4.93;;
55931;SDS011;41837;55.700;37.984;2023-09-12T10:23:19;7.45;;;4.78;;
55931;SDS011;41837;55.700;37.984;2023-09-12T10:25:54;7.18;;;5.03;;
55931;SDS011;41837;55.700;37.984;2023-09-12T10:28:34;9.52;;;5.32;;
55931;SDS011;41837;55.700;37.984;2023-09-12T10:31:01;8.07;;;5.15;;
55931;SDS011;41837;55.700;37.984;2023-09-12T10:33:28;7.93;;;5.57;;
55931;SDS011;41837;55.700;37.984;2023-09-12T10:35:57;8.25;;;5.15;;
55931;SDS011;41837;55.700;37.984;2023-09-12T10:38:26;9.73;;;5.32;;
55931;SDS011;41837;55.700;37.984;2023-09-12T10:40:56;7.00;;;4.78;;
55931;SDS011;41837;55.700;37.984;2023-09-12T10:43:29;8.77;;;4.60;;
55931;SDS011;41837;55.700;37.984;2023-09-12T10:46:00;9.15;;;5.50;;
55931;SDS011;41837;55.700;37.984;2023-09-12T10:48:28;7.85;;;5.32;;
55931;SDS011;41837;55.700;37.984;2023-09-12T10:50:56;13.70;;;4.55;;
55931;SDS011;41837;55.700;37.984;2023-09-12T10:53:25;8.30;;;5.30;;
55931;SDS011;41837;55.700;37.984;2023-09-12T10:55:58;7.00;;;5.15;;
55931;SDS011;41837;55.700;37.984;2023-09-12T10:58:26;6.55;;;5.20;;
55931;SDS011;41837;55.700;37.984;2023-09-12T11:03:51;8.15;;;5.80;;
55931;SDS011;41837;55.700;37.984;2023-09-12T11:06:22;10.93;;;5.28;;
55931;SDS011;41837;55.700;37.984;2023-09-12T11:11:48;10.45;;;5.30;;
55931;SDS011;41837;55.700;37.984;2023-09-12T11:14:22;15.70;;;6.20;;
55931;SDS011;41837;55.700;37.984;2023-09-12T11:19:46;12.48;;;6.50;;
55931;SDS011;41837;55.700;37.984;2023-09-12T11:22:21;6.95;;;5.50;;
55931;SDS011;41837;55.700;37.984;2023-09-12T11:24:53;8.38;;;5.78;;
55931;SDS011;41837;55.700;37.984;2023-09-12T11:27:22;10.80;;;6.07;;
55931;SDS011;41837;55.700;37.984;2023-09-12T11:29:50;8.20;;;5.10;;
55931;SDS011;41837;55.700;37.984;2023-09-12T11:32:27;9.73;;;5.82;;
55931;SDS011;41837;55.700;37.984;2023-09-12T11:34:57;11.57;;;5.82;;
55931;SDS011;41837;55.700;37.984;2023-09-12T11:37:26;9.00;;;5.78;;
55931;SDS011;41837;55.700;37.984;2023-09-12T11:39:54;8.48;;;5.20;;
55931;SDS011;41837;55.700;37.984;2023-09-12T11:42:21;7.95;;;5.50;;
55931;SDS011;41837;55.700;37.984;2023-09-12T11:44:51;7.85;;;4.95;;
55931;SDS011;41837;55.700;37.984;2023-09-12T11:47:21;8.13;;;6.35;;
55931;SDS011;41837;55.700;37.984;2023-09-12T11:49:48;8.05;;;5.97;;
55931;SDS011;41837;55.700;37.984;2023-09-12T11:52:15;10.05;;;5.43;;
55931;SDS011;41837;55.700;37.984;2023-09-12T11:54:43;10.75;;;5.93;;
55931;SDS011;41837;55.700;37.984;2023-09-12T11:57:14;8.82;;;5.60;;
55931;SDS011;41837;55.700;37.984;2023-09-12T11:59:42;9.05;;;5.93;;
55931;SDS011;41837;55.700;37.984;2023-09-12T12:02:14;9.68;;;6.47;;
55931;SDS011;41837;55.700;37.984;2023-09-12T12:04:41;10.13;;;6.88;;
55931;SDS011;41837;55.700;37.984;2023-09-12T12:07:09;9.73;;;5.88;;
55931;SDS011;41837;55.700;37.984;2023-09-12T12:09:37;8.45;;;5.47;;
55931;SDS011;41837;55.700;37.984;2023-09-12T12:12:08;8.63;;;6.35;;
55931;SDS011;41837;55.700;37.984;2023-09-12T12:14:38;10.88;;;5.80;;
55931;SDS011;41837;55.700;37.984;2023-09-12T12:17:07;7.53;;;5.35;;
55931;SDS011;41837;55.700;37.984;2023-09-12T12:19:35;10.73;;;6.45;;
55931;SDS011;41837;55.700;37.984;2023-09-12T12:22:03;11.95;;;6.30;;
55931;SDS011;41837;55.700;37.984;2023-09-12T12:24:39;10.05;;;6.28;;
55931;SDS011;41837;55.700;37.984;2023-09-12T12:27:11;11.55;;;5.65;;
55931;SDS011;41837;55.700;37.984;2023-09-12T12:29:41;15.18;;;6.55;;
55931;SDS011;41837;55.700;37.984;2023-09-12T12:32:25;10.45;;;5.93;;
55931;SDS011;41837;55.700;37.984;2023-09-12T12:34:52;8.65;;;5.68;;
55931;SDS011;41837;55.700;37.984;2023-09-12T12:37:18;9.95;;;5.50;;
55931;SDS011;41837;55.700;37.984;2023-09-12T12:39:44;5.88;;;4.80;;
55931;SDS011;41837;55.700;37.984;2023-09-12T12:42:11;9.27;;;4.95;;
55931;SDS011;41837;55.700;37.984;2023-09-12T12:44:38;9.90;;;4.68;;
55931;SDS011;41837;55.700;37.984;2023-09-12T12:47:07;8.82;;;5.07;;
55931;SDS011;41837;55.700;37.984;2023-09-12T12:49:41;10.82;;;6.18;;
55931;SDS011;41837;55.700;37.984;2023-09-12T12:54:36;6.72;;;4.60;;
55931;SDS011;41837;55.700;37.984;2023-09-12T12:57:03;8.60;;;5.00;;
55931;SDS011;41837;55.700;37.984;2023-09-12T12:59:29;10.75;;;5.05;;
55931;SDS011;41837;55.700;37.984;2023-09-12T13:02:00;7.63;;;4.40;;
55931;SDS011;41837;55.700;37.984;2023-09-12T13:04:28;12.27;;;4.90;;
55931;SDS011;41837;55.700;37.984;2023-09-12T13:07:01;8.63;;;5.47;;
55931;SDS011;41837;55.700;37.984;2023-09-12T13:09:27;7.53;;;4.40;;
55931;SDS011;41837;55.700;37.984;2023-09-12T13:11:54;13.20;;;5.45;;
55931;SDS011;41837;55.700;37.984;2023-09-12T13:14:20;8.23;;;5.57;;
55931;SDS011;41837;55.700;37.984;2023-09-12T13:16:47;9.60;;;5.60;;
55931;SDS011;41837;55.700;37.984;2023-09-12T13:19:13;19.45;;;5.50;;
55931;SDS011;41837;55.700;37.984;2023-09-12T13:21:39;8.75;;;5.10;;
55931;SDS011;41837;55.700;37.984;2023-09-12T13:24:06;7.82;;;5.07;;
55931;SDS011;41837;55.700;37.984;2023-09-12T13:26:33;7.82;;;4.85;;
55931;SDS011;41837;55.700;37.984;2023-09-12T13:28:59;9.07;;;5.00;;
55931;SDS011;41837;55.700;37.984;2023-09-12T13:31:26;6.97;;;5.18;;
55931;SDS011;41837;55.700;37.984;2023-09-12T13:33:52;9.23;;;5.25;;
55931;SDS011;41837;55.700;37.984;2023-09-12T13:36:19;7.95;;;5.32;;
55931;SDS011;41837;55.700;37.984;2023-09-12T13:38:46;10.48;;;4.90;;
55931;SDS011;41837;55.700;37.984;2023-09-12T13:41:13;9.18;;;5.25;;
55931;SDS011;41837;55.700;37.984;2023-09-12T13:43:40;7.60;;;5.00;;
55931;SDS011;41837;55.700;37.984;2023-09-12T13:46:06;6.90;;;4.40;;
55931;SDS011;41837;55.700;37.984;2023-09-12T13:48:35;6.65;;;4.53;;
55931;SDS011;41837;55.700;37.984;2023-09-12T13:51:01;6.88;;;4.60;;
55931;SDS011;41837;55.700;37.984;2023-09-12T13:53:28;11.13;;;4.88;;
55931;SDS011;41837;55.700;37.984;2023-09-12T13:55:54;8.45;;;5.07;;
55931;SDS011;41837;55.700;37.984;2023-09-12T13:58:23;5.85;;;4.53;;
55931;SDS011;41837;55.700;37.984;2023-09-12T14:00:49;9.40;;;5.20;;
55931;SDS011;41837;55.700;37.984;2023-09-12T14:03:16;20.40;;;5.45;;
55931;SDS011;41837;55.700;37.984;2023-09-12T14:05:42;10.80;;;4.43;;
55931;SDS011;41837;55.700;37.984;2023-09-12T14:08:09;18.17;;;6.00;;
55931;SDS011;41837;55.700;37.984;2023-09-12T14:10:35;13.70;;;5.10;;
55931;SDS011;41837;55.700;37.984;2023-09-12T14:13:02;16.30;;;5.57;;
55931;SDS011;41837;55.700;37.984;2023-09-12T14:15:29;13.65;;;5.30;;
55931;SDS011;41837;55.700;37.984;2023-09-12T14:17:55;10.95;;;4.70;;
55931;SDS011;41837;55.700;37.984;2023-09-12T14:20:21;9.10;;;5.70;;
55931;SDS011;41837;55.700;37.984;2023-09-12T14:22:48;29.10;;;17.40;;
55931;SDS011;41837;55.700;37.984;2023-09-12T14:25:14;26.92;;;17.05;;
55931;SDS011;41837;55.700;37.984;2023-09-12T14:27:41;58.58;;;35.92;;
55931;SDS011;41837;55.700;37.984;2023-09-12T14:30:09;43.75;;;25.63;;
55931;SDS011;41837;55.700;37.984;2023-09-12T14:32:38;32.72;;;21.33;;
55931;SDS011;41837;55.700;37.984;2023-09-12T14:35:04;23.30;;;13.68;;
55931;SDS011;41837;55.700;37.984;2023-09-12T14:37:32;27.55;;;17.38;;